Time;durP1;ratioP1;P1;durP2;ratioP2;P2;SDS_P1;SDS_P2;PMS_P1;PMS_P2;Temp;Humidity;BMP_temperature;BMP_pressure;BME280_temperature;BME280_humidity;BME280_pressure;Samples;Min_cycle;Max_cycle;Signal;HPM_P1;HPM_P2
2022/11/17 00:04:00;;;;;;;4.57;1.10;;;;;;;17.65;65.70;94818.78;10437300;28;20288;-31
2022/11/17 00:09:01;;;;;;;2.97;1.20;;;;;;;17.68;65.86;94821.22;10435437;28;20033;-29
2022/11/17 00:24:39;;;;;;;3.67;1.17;;;;;;;17.68;65.66;94803.50;10441741;28;20040;-30
2022/11/17 00:29:39;;;;;;;3.90;1.55;;;;;;;17.66;65.46;94805.25;10438152;28;20028;-30
2022/11/17 00:34:40;;;;;;;3.40;1.30;;;;;;;17.66;65.63;94785.00;10434657;28;20033;-29
2022/11/17 00:39:40;;;;;;;2.20;1.95;;;;;;;17.67;65.71;94771.47;10439880;28;20675;-30
2022/11/17 00:44:40;;;;;;;2.13;1.87;;;;;;;17.61;65.43;94742.13;10433385;28;20039;-30
2022/11/17 00:49:41;;;;;;;2.80;1.37;;;;;;;17.64;65.43;94746.25;10432281;28;20427;-30
2022/11/17 00:54:41;;;;;;;2.08;0.82;;;;;;;17.60;65.62;94729.50;10434445;28;20029;-31
2022/11/17 00:59:42;;;;;;;2.55;1.30;;;;;;;17.63;65.62;94724.34;10432830;28;20042;-31
2022/11/17 01:04:42;;;;;;;3.17;1.30;;;;;;;17.64;65.59;94715.88;10438471;28;20038;-30
2022/11/17 01:09:42;;;;;;;3.50;1.50;;;;;;;17.64;65.61;94719.25;10434153;28;20026;-30
2022/11/17 01:14:43;;;;;;;2.00;1.10;;;;;;;17.68;65.56;94713.22;10438500;28;20392;-30
2022/11/17 01:19:43;;;;;;;4.38;1.35;;;;;;;17.69;65.74;94698.88;10431585;28;20034;-31
2022/11/17 01:24:43;;;;;;;4.47;0.97;;;;;;;17.69;65.63;94678.63;10439084;28;20448;-31
2022/11/17 01:29:44;;;;;;;2.20;1.20;;;;;;;17.67;65.59;94660.16;10428021;28;20044;-30
2022/11/17 01:34:45;;;;;;;2.03;1.10;;;;;;;17.65;65.72;94646.72;10432913;28;20029;-31
2022/11/17 01:39:49;;;;;;;4.28;1.42;;;;;;;17.61;65.71;94656.09;10436661;28;20318;-30
2022/11/17 01:45:11;;;;;;;2.50;1.17;;;;;;;17.65;65.60;94667.78;10433451;28;20094;-30
2022/11/17 01:50:31;;;;;;;3.63;1.20;;;;;;;17.65;65.80;94661.91;10433875;28;20040;-30
2022/11/17 01:55:37;;;;;;;2.13;1.15;;;;;;;17.64;65.57;94667.81;10433919;28;20484;-30
2022/11/17 02:00:37;;;;;;;1.80;1.23;;;;;;;17.63;65.81;94693.97;10424971;28;20041;-30
2022/11/17 02:05:59;;;;;;;2.20;1.57;;;;;;;17.63;65.82;94693.97;10436919;28;20478;-30
2022/11/17 02:11:02;;;;;;;3.08;1.25;;;;;;;17.62;65.88;94697.38;10443576;28;20287;-30
2022/11/17 02:16:03;;;;;;;1.77;1.25;;;;;;;17.63;65.70;94704.94;10436945;28;20502;-31
2022/11/17 02:21:22;;;;;;;5.15;2.65;;;;;;;17.61;65.74;94705.84;10434841;28;20029;-32
2022/11/17 02:26:41;;;;;;;2.25;0.90;;;;;;;17.67;65.52;94706.50;10444606;28;20028;-30
2022/11/17 02:31:58;;;;;;;2.30;0.90;;;;;;;17.67;66.24;94685.44;10436974;28;20695;-30
2022/11/17 02:37:09;;;;;;;2.20;0.80;;;;;;;17.70;65.55;94700.53;10439560;28;20072;-30
2022/11/17 02:47:53;;;;;;;2.00;0.80;;;;;;;17.67;65.38;94675.31;10435679;28;20495;-31
2022/11/17 02:52:54;;;;;;;4.05;0.95;;;;;;;17.67;65.50;94670.25;10441387;28;20029;-31
2022/11/17 02:57:54;;;;;;;3.20;1.00;;;;;;;17.64;65.79;94670.34;10438847;28;20025;-30
2022/11/17 03:03:18;;;;;;;2.60;0.90;;;;;;;17.64;65.54;94662.75;10435185;28;20033;-30
2022/11/17 03:08:30;;;;;;;3.40;1.30;;;;;;;17.65;65.30;94652.59;10437001;28;20850;-30
2022/11/17 03:14:01;;;;;;;1.23;1.00;;;;;;;17.62;65.58;94631.59;10443664;28;20519;-30
2022/11/17 03:19:39;;;;;;;1.90;1.00;;;;;;;17.64;65.51;94624.78;10438935;28;20048;-29
2022/11/17 03:24:52;;;;;;;1.40;0.95;;;;;;;17.62;65.46;94611.38;10443905;28;20128;-30
2022/11/17 03:29:56;;;;;;;2.35;1.10;;;;;;;17.62;65.72;94613.91;10431550;28;20419;-30
2022/11/17 03:35:05;;;;;;;2.17;1.00;;;;;;;17.63;65.23;94618.09;10437670;28;20029;-29
2022/11/17 03:40:12;;;;;;;2.03;1.30;;;;;;;17.64;65.66;94602.88;10441204;28;20033;-36
2022/11/17 03:45:14;;;;;;;1.98;1.15;;;;;;;17.68;65.79;94608.66;10438015;28;20037;-30
2022/11/17 03:50:26;;;;;;;2.55;0.88;;;;;;;17.70;65.42;94599.31;10439801;28;20033;-30
2022/11/17 03:55:52;;;;;;;2.35;1.13;;;;;;;17.66;65.70;94628.13;10439598;28;20044;-30
2022/11/17 04:00:55;;;;;;;5.15;1.25;;;;;;;17.64;65.75;94632.38;10434981;28;20048;-30
2022/11/17 04:05:55;;;;;;;1.50;0.73;;;;;;;17.64;65.70;94645.03;10440427;28;20040;-30
2022/11/17 04:16:15;;;;;;;1.40;0.90;;;;;;;17.60;65.95;94628.31;10437721;28;20291;-32
2022/11/17 04:21:16;;;;;;;1.43;0.80;;;;;;;17.62;65.75;94647.63;10437299;28;20040;-30
2022/11/17 04:31:35;;;;;;;1.15;0.70;;;;;;;17.61;65.79;94689.00;10434895;28;20033;-31
2022/11/17 04:36:42;;;;;;;1.17;0.80;;;;;;;17.63;65.98;94684.72;10431776;28;20044;-31
2022/11/17 04:42:01;;;;;;;1.20;0.98;;;;;;;17.65;66.10;94697.31;10434312;28;20029;-30
2022/11/17 04:47:03;;;;;;;2.05;1.17;;;;;;;17.70;65.66;94710.66;10435579;28;20025;-30
2022/11/17 04:52:03;;;;;;;1.65;1.00;;;;;;;17.70;65.90;94706.44;10439942;28;20075;-30
2022/11/17 04:57:04;;;;;;;1.73;0.65;;;;;;;17.72;65.83;94698.78;10430152;28;20041;-31
2022/11/17 05:02:04;;;;;;;0.97;0.70;;;;;;;17.74;65.47;94727.41;10428241;28;20028;-30
2022/11/17 05:07:06;;;;;;;3.70;1.00;;;;;;;17.74;65.40;94722.34;10436028;28;20082;-31
2022/11/17 05:17:27;;;;;;;2.03;0.63;;;;;;;17.79;65.46;94717.97;10430299;28;20029;-29
2022/11/17 05:27:46;;;;;;;1.38;0.80;;;;;;;17.78;65.58;94718.84;10436351;28;20083;-30
2022/11/17 05:32:46;;;;;;;2.90;1.10;;;;;;;17.80;65.54;94732.28;10432940;28;20118;-30
2022/11/17 05:37:46;;;;;;;3.63;0.90;;;;;;;17.81;65.45;94708.63;10435633;28;20037;-30
2022/11/17 05:42:47;;;;;;;2.60;1.03;;;;;;;17.76;65.49;94720.59;10443265;28;20518;-30
2022/11/17 05:47:47;;;;;;;1.43;0.63;;;;;;;17.69;63.86;94731.78;10444452;28;20029;-30
2022/11/17 05:52:47;;;;;;;3.30;1.00;;;;;;;17.70;64.27;94751.13;10448073;28;20479;-30
2022/11/17 05:57:49;;;;;;;3.93;1.60;;;;;;;17.65;64.60;94742.88;10444207;28;20475;-31
2022/11/17 06:02:54;;;;;;;5.55;1.33;;;;;;;17.67;63.92;94720.88;10439256;28;20950;-30
2022/11/17 06:07:57;;;;;;;4.82;1.15;;;;;;;17.73;64.14;94733.34;10444368;28;20028;-30
2022/11/17 06:12:57;;;;;;;3.55;1.52;;;;;;;17.72;64.37;94741.78;10448774;28;20044;-30
2022/11/17 06:18:13;;;;;;;9.43;2.27;;;;;;;17.72;64.61;94730.00;10444829;28;20376;-30
2022/11/17 06:23:16;;;;;;;5.25;1.20;;;;;;;17.73;64.82;94721.50;10439757;28;20530;-30
2022/11/17 06:28:20;;;;;;;6.63;1.40;;;;;;;17.72;64.69;94707.22;10447087;28;20506;-30
2022/11/17 06:33:21;;;;;;;7.47;1.50;;;;;;;17.67;63.56;94703.16;10441813;28;20456;-31
2022/11/17 06:38:21;;;;;;;5.72;1.75;;;;;;;17.72;64.46;94713.97;10448395;28;20074;-31
2022/11/17 06:43:22;;;;;;;5.80;1.60;;;;;;;17.69;64.49;94739.38;10444620;28;20479;-30
2022/11/17 06:48:25;;;;;;;7.35;2.05;;;;;;;17.70;64.43;94748.59;10447258;28;20032;-31
2022/11/17 06:53:27;;;;;;;4.75;1.83;;;;;;;17.69;64.78;94754.53;10440586;28;20400;-31
2022/11/17 06:58:28;;;;;;;5.05;1.60;;;;;;;17.70;64.85;94758.72;10442866;28;20036;-30
2022/11/17 07:03:28;;;;;;;5.30;1.67;;;;;;;17.66;65.19;94749.59;10440605;28;20029;-30
2022/11/17 07:08:29;;;;;;;5.95;1.85;;;;;;;17.67;65.27;94756.28;10436918;28;20033;-30
2022/11/17 07:13:31;;;;;;;3.70;1.60;;;;;;;17.69;65.27;94788.28;10444463;28;20463;-31
2022/11/17 07:18:32;;;;;;;5.30;1.50;;;;;;;17.69;65.08;94793.34;10438831;28;20040;-30
2022/11/17 07:23:33;;;;;;;4.68;1.65;;;;;;;17.71;64.95;94800.88;10437402;28;20025;-30
2022/11/17 07:28:34;;;;;;;4.70;1.48;;;;;;;17.69;65.08;94800.09;10441580;28;20048;-29
2022/11/17 07:33:35;;;;;;;2.72;1.20;;;;;;;17.65;65.31;94844.06;10429931;28;20033;-30
2022/11/17 07:38:37;;;;;;;3.05;1.20;;;;;;;17.65;65.30;94823.84;10442299;28;20025;-30
2022/11/17 07:43:38;;;;;;;3.17;1.10;;;;;;;17.66;65.11;94854.13;10438943;28;20034;-31
2022/11/17 07:48:39;;;;;;;2.72;1.30;;;;;;;17.67;65.08;94857.50;10435638;28;20025;-30
2022/11/17 07:53:40;;;;;;;4.30;1.15;;;;;;;17.64;65.31;94847.44;10438129;28;20099;-30
2022/11/17 07:58:40;;;;;;;2.57;1.30;;;;;;;17.63;65.32;94876.16;10434278;28;20080;-31
2022/11/17 08:03:42;;;;;;;6.88;1.42;;;;;;;17.56;65.93;94877.22;10431034;28;20052;-30
2022/11/17 08:08:42;;;;;;;5.55;1.50;;;;;;;17.59;65.36;94875.41;10428279;28;20064;-30
2022/11/17 08:13:42;;;;;;;3.23;1.10;;;;;;;17.59;65.50;94900.72;10439219;28;20025;-30
2022/11/17 08:18:43;;;;;;;2.40;1.30;;;;;;;17.59;65.50;94899.91;10436554;28;20048;-30
2022/11/17 08:23:43;;;;;;;3.63;1.20;;;;;;;17.64;65.49;94934.31;10434242;28;20291;-31
2022/11/17 08:28:43;;;;;;;3.20;1.43;;;;;;;17.61;64.95;94908.28;10437638;28;20287;-31
2022/11/17 08:33:44;;;;;;;3.17;1.10;;;;;;;17.70;65.00;94958.66;10433609;28;20033;-31
2022/11/17 08:38:44;;;;;;;3.17;1.30;;;;;;;17.63;65.35;94916.66;10437532;28;20292;-30
2022/11/17 08:43:44;;;;;;;4.83;1.60;;;;;;;17.63;65.50;94921.69;10435364;28;20045;-30
2022/11/17 08:48:45;;;;;;;4.23;1.50;;;;;;;17.56;65.01;94912.63;10424106;28;20029;-31
2022/11/17 08:53:45;;;;;;;3.47;1.67;;;;;;;17.61;65.29;94920.91;10434826;28;20040;-33
2022/11/17 08:58:46;;;;;;;5.33;1.43;;;;;;;17.57;65.46;94916.81;10441136;28;20025;-30
2022/11/17 09:03:47;;;;;;;4.80;1.42;;;;;;;17.53;65.40;94915.22;10435577;28;20090;-31
2022/11/17 09:08:48;;;;;;;2.38;1.45;;;;;;;17.48;65.28;94901.88;10431161;28;20111;-32
2022/11/17 09:13:49;;;;;;;2.97;1.52;;;;;;;17.42;65.52;94904.53;10437525;28;20570;-30
2022/11/17 09:18:57;;;;;;;2.78;1.40;;;;;;;17.51;65.42;94911.91;10435153;28;20039;-30
2022/11/17 09:23:57;;;;;;;3.42;1.73;;;;;;;17.50;65.63;94910.25;10432682;28;20047;-30
2022/11/17 09:29:02;;;;;;;7.20;2.97;;;;;;;17.48;65.36;94917.06;10432046;28;20117;-30
2022/11/17 09:34:03;;;;;;;4.07;1.20;;;;;;;17.56;65.09;94894.94;10433829;28;20025;-30
2022/11/17 09:39:03;;;;;;;8.90;1.80;;;;;;;17.65;65.40;94909.88;10431521;28;20029;-30
2022/11/17 09:44:15;;;;;;;3.30;1.50;;;;;;;17.63;65.70;94906.53;10436470;28;20036;-30
2022/11/17 09:49:33;;;;;;;24.38;2.38;;;;;;;17.62;64.80;94899.81;10433109;28;20029;-29
2022/11/17 09:54:57;;;;;;;7.78;1.40;;;;;;;17.60;64.80;94881.31;10438907;28;20021;-31
2022/11/17 10:00:03;;;;;;;4.93;1.10;;;;;;;17.61;63.20;94903.22;10432628;28;20583;-30
2022/11/17 10:05:05;;;;;;;8.80;0.77;;;;;;;17.61;62.22;94893.09;10437193;28;20048;-30
2022/11/17 10:10:13;;;;;;;2.70;1.40;;;;;;;17.62;62.08;94904.88;10439517;28;20475;-30
2022/11/17 10:15:40;;;;;;;4.78;0.93;;;;;;;17.61;61.39;94888.03;10433740;28;20051;-31
2022/11/17 10:20:42;;;;;;;2.40;1.27;;;;;;;17.61;61.58;94896.47;10431600;28;20130;-30
2022/11/17 10:25:45;;;;;;;7.97;1.35;;;;;;;17.65;61.85;94897.22;10429556;28;20037;-31
2022/11/17 10:30:52;;;;;;;4.78;1.50;;;;;;;17.64;61.43;94881.19;10436701;28;20059;-31
2022/11/17 10:35:55;;;;;;;6.47;1.25;;;;;;;17.63;61.09;94881.22;10435042;28;20064;-31
2022/11/17 10:40:59;;;;;;;8.23;1.77;;;;;;;17.60;61.55;94872.03;10441029;28;20700;-30
2022/11/17 10:46:05;;;;;;;3.95;1.05;;;;;;;17.64;60.64;94872.75;10445964;28;20593;-31
2022/11/17 10:51:21;;;;;;;8.57;1.60;;;;;;;17.64;62.80;94880.34;10440280;28;20032;-30
2022/11/17 10:56:21;;;;;;;12.23;1.70;;;;;;;17.61;61.32;94868.63;10440291;28;20514;-30
2022/11/17 11:01:28;;;;;;;9.87;2.40;;;;;;;17.61;63.25;94870.31;10437946;28;20062;-30
2022/11/17 11:06:33;;;;;;;5.57;1.70;;;;;;;17.62;61.99;94882.09;10443555;28;20296;-31
2022/11/17 11:11:55;;;;;;;6.85;1.70;;;;;;;17.56;63.22;94877.22;10449597;28;20598;-30
2022/11/17 11:16:56;;;;;;;23.67;4.65;;;;;;;17.66;61.67;94858.38;10446167;28;20052;-30
2022/11/17 11:22:15;;;;;;;9.05;2.65;;;;;;;17.70;61.92;94862.47;10437002;28;20040;-30
2022/11/17 11:27:36;;;;;;;8.98;3.50;;;;;;;17.70;61.78;94863.31;10440306;28;20030;-30
2022/11/17 11:32:52;;;;;;;13.55;2.70;;;;;;;17.72;61.79;94850.59;10430921;28;20056;-30
2022/11/17 11:38:21;;;;;;;9.90;1.70;;;;;;;17.72;61.79;94843.03;10438509;28;20029;-31
2022/11/17 11:43:37;;;;;;;5.18;2.00;;;;;;;17.70;61.79;94832.97;10437119;28;20197;-30
2022/11/17 11:48:40;;;;;;;10.43;2.25;;;;;;;17.72;61.28;94825.31;10440883;28;20036;-31
2022/11/17 11:53:47;;;;;;;16.80;2.40;;;;;;;17.71;61.05;94826.19;10434724;28;20037;-31
2022/11/17 11:59:26;;;;;;;6.43;2.15;;;;;;;17.70;61.30;94816.94;10446220;28;20492;-30
2022/11/17 12:04:46;;;;;;;6.97;1.88;;;;;;;17.70;61.51;94816.94;10437135;28;20041;-30
2022/11/17 12:10:08;;;;;;;15.32;4.28;;;;;;;17.71;62.81;94818.59;10435306;28;20407;-30
2022/11/17 12:15:11;;;;;;;12.20;2.92;;;;;;;17.70;62.63;94822.84;10436091;28;20483;-31
2022/11/17 12:20:35;;;;;;;11.65;2.08;;;;;;;17.71;62.04;94816.06;10434252;28;20025;-30
2022/11/17 12:25:44;;;;;;;9.80;2.35;;;;;;;17.70;61.26;94811.88;10440388;28;20045;-32
2022/11/17 12:30:44;;;;;;;7.20;1.90;;;;;;;17.70;62.26;94822.00;10422206;28;20029;-30
2022/11/17 12:36:05;;;;;;;6.45;2.22;;;;;;;17.65;61.39;94808.66;10434145;28;20450;-30
2022/11/17 12:41:05;;;;;;;5.07;1.98;;;;;;;17.70;61.66;94806.81;10439013;28;20060;-30
2022/11/17 12:46:13;;;;;;;5.87;1.70;;;;;;;17.70;62.16;94809.34;10434146;28;20037;-30
2022/11/17 12:51:25;;;;;;;6.50;2.00;;;;;;;17.67;63.26;94814.50;10443162;28;20283;-30
2022/11/17 12:56:31;;;;;;;5.82;1.80;;;;;;;17.67;63.09;94827.16;10436798;28;20041;-30
2022/11/17 13:01:50;;;;;;;5.40;2.17;;;;;;;17.67;61.64;94820.38;10430117;28;20041;-30
2022/11/17 13:07:15;;;;;;;4.72;1.80;;;;;;;17.65;61.68;94823.84;10434920;28;20025;-31
2022/11/17 13:12:20;;;;;;;5.93;1.88;;;;;;;17.65;61.61;94828.91;10441036;28;20032;-29
2022/11/17 13:17:41;;;;;;;8.85;3.72;;;;;;;17.64;62.32;94807.81;10433873;28;20434;-32
2022/11/17 13:22:41;;;;;;;8.10;2.22;;;;;;;17.62;63.67;94806.19;10432798;28;20072;-30
2022/11/17 13:27:44;;;;;;;9.63;2.23;;;;;;;17.59;65.27;94796.16;10428546;28;20495;-31
2022/11/17 13:32:45;;;;;;;5.82;2.53;;;;;;;17.63;63.21;94801.09;10431205;28;20292;-30
2022/11/17 13:38:00;;;;;;;3.67;1.80;;;;;;;17.66;62.69;94790.06;10437871;28;20395;-30
2022/11/17 13:43:02;;;;;;;3.70;1.80;;;;;;;17.66;62.55;94785.00;10423708;28;20288;-30
2022/11/17 13:48:02;;;;;;;8.98;1.85;;;;;;;17.64;62.70;94784.19;10427833;28;20483;-30
2022/11/17 13:53:09;;;;;;;5.80;1.80;;;;;;;17.64;63.19;94787.56;10437928;28;20037;-30
2022/11/17 13:58:29;;;;;;;7.25;2.47;;;;;;;17.61;62.20;94784.28;10431495;28;20043;-30
2022/11/17 14:03:36;;;;;;;12.50;4.13;;;;;;;17.64;62.96;94776.59;10438570;28;20387;-30
2022/11/17 14:08:39;;;;;;;6.25;1.42;;;;;;;17.63;61.73;94787.59;10448581;28;20043;-30
2022/11/17 14:13:45;;;;;;;4.22;1.75;;;;;;;17.63;62.28;94785.06;10446015;28;20494;-30
2022/11/17 14:18:55;;;;;;;3.28;1.35;;;;;;;17.62;62.32;94781.72;10440763;28;20037;-30
2022/11/17 14:24:10;;;;;;;7.20;1.35;;;;;;;17.61;62.88;94764.06;10440163;28;20021;-30
2022/11/17 14:29:12;;;;;;;4.30;1.23;;;;;;;17.62;62.72;94753.06;10443488;28;20024;-31
2022/11/17 14:34:12;;;;;;;4.15;1.30;;;;;;;17.62;63.33;94740.41;10439227;28;20040;-30
2022/11/17 14:39:14;;;;;;;3.15;1.50;;;;;;;17.59;64.47;94743.84;10444481;28;20029;-31
2022/11/17 14:44:15;;;;;;;3.70;1.50;;;;;;;17.60;63.89;94742.16;10441062;28;20032;-30
2022/11/17 14:49:15;;;;;;;4.80;1.63;;;;;;;17.58;63.13;94747.25;10438102;28;20021;-30
2022/11/17 14:54:16;;;;;;;2.67;1.30;;;;;;;17.60;62.69;94754.81;10445834;28;20119;-30
2022/11/17 14:59:16;;;;;;;2.97;1.23;;;;;;;17.55;62.40;94739.75;10439843;28;20029;-30
2022/11/17 15:04:17;;;;;;;4.38;1.52;;;;;;;17.61;62.17;94747.19;10444857;28;20295;-32
2022/11/17 15:09:19;;;;;;;2.73;1.03;;;;;;;17.60;62.22;94757.34;10446155;28;20059;-31
2022/11/17 15:14:19;;;;;;;5.53;1.50;;;;;;;17.41;61.80;94726.66;10438510;28;20037;-32
2022/11/17 15:19:20;;;;;;;3.73;2.10;;;;;;;17.61;62.34;94741.28;10438780;28;20099;-30
2022/11/17 15:24:20;;;;;;;2.97;1.05;;;;;;;17.59;61.71;94732.91;10439234;28;20039;-31
2022/11/17 15:29:21;;;;;;;4.88;1.40;;;;;;;17.61;61.29;94759.84;10437702;28;20032;-30
2022/11/17 15:34:21;;;;;;;3.17;1.02;;;;;;;17.60;61.75;94747.22;10440922;28;20029;-29
2022/11/17 15:39:22;;;;;;;4.75;1.13;;;;;;;17.59;61.45;94737.97;10440889;28;20029;-30
2022/11/17 15:44:23;;;;;;;1.83;1.13;;;;;;;17.60;61.42;94739.63;10432286;28;20025;-32
2022/11/17 15:49:23;;;;;;;2.55;1.10;;;;;;;17.54;63.68;94720.38;10439742;28;20088;-30
2022/11/17 15:54:23;;;;;;;2.83;1.33;;;;;;;17.59;64.52;94753.16;10442073;28;20434;-30
2022/11/17 15:59:24;;;;;;;2.87;1.30;;;;;;;17.58;63.66;94736.31;10437345;28;20032;-30
2022/11/17 16:04:24;;;;;;;2.27;1.40;;;;;;;17.58;63.13;94736.31;10437543;28;20440;-30
2022/11/17 16:09:25;;;;;;;1.77;1.13;;;;;;;17.56;63.03;94722.88;10440750;28;20283;-30
2022/11/17 16:14:25;;;;;;;2.20;1.10;;;;;;;17.58;62.22;94726.19;10439724;28;20048;-31
2022/11/17 16:19:25;;;;;;;2.37;1.00;;;;;;;17.51;62.50;94725.50;10421584;28;20034;-34
2022/11/17 16:24:26;;;;;;;9.50;3.03;;;;;;;17.63;61.80;94724.34;10438329;28;20037;-30
2022/11/17 16:29:26;;;;;;;3.50;1.30;;;;;;;17.63;61.65;94726.88;10441424;28;20815;-30
2022/11/17 16:34:26;;;;;;;2.67;0.73;;;;;;;17.62;61.28;94736.19;10425270;28;20483;-31
2022/11/17 16:39:27;;;;;;;4.37;1.10;;;;;;;17.66;61.73;94757.97;10440372;28;20041;-30
2022/11/17 16:44:27;;;;;;;5.47;1.37;;;;;;;17.63;60.71;94745.44;10445832;28;20295;-30
2022/11/17 16:49:29;;;;;;;4.60;1.33;;;;;;;17.59;57.71;94745.56;10446011;28;20045;-29
2022/11/17 16:54:30;;;;;;;3.13;1.30;;;;;;;17.67;60.55;94736.06;10448719;28;20036;-30
2022/11/17 16:59:30;;;;;;;3.87;1.33;;;;;;;17.66;60.68;94744.53;10442871;28;20029;-31
2022/11/17 17:04:30;;;;;;;6.70;1.83;;;;;;;17.65;63.34;94737.81;10446853;28;20033;-31
2022/11/17 17:09:31;;;;;;;4.63;1.65;;;;;;;17.62;63.83;94737.88;10441345;28;20029;-30
2022/11/17 17:14:31;;;;;;;4.27;1.50;;;;;;;17.64;63.21;94748.78;10442167;28;20086;-29
2022/11/17 17:19:32;;;;;;;3.70;1.90;;;;;;;17.66;62.99;94760.50;10434227;28;20311;-30
2022/11/17 17:24:33;;;;;;;7.97;2.63;;;;;;;17.69;63.68;94795.03;10437430;28;20037;-30
2022/11/17 17:29:34;;;;;;;11.13;3.17;;;;;;;17.72;63.59;94822.78;10432985;28;20381;-30
2022/11/17 17:34:34;;;;;;;7.00;3.78;;;;;;;17.71;63.98;94818.59;10432780;28;20037;-30
2022/11/17 17:39:34;;;;;;;8.23;3.40;;;;;;;17.72;63.76;94840.50;10436914;28;20037;-31
2022/11/17 17:44:35;;;;;;;8.23;3.37;;;;;;;17.72;64.00;94825.31;10422406;28;20075;-29
2022/11/17 17:49:35;;;;;;;9.47;3.70;;;;;;;17.72;63.57;94825.31;10429954;28;20035;-31
2022/11/17 17:54:36;;;;;;;10.65;3.55;;;;;;;17.72;64.22;94825.31;10437677;28;20083;-30
2022/11/17 17:59:36;;;;;;;8.53;3.70;;;;;;;17.72;63.69;94805.06;10428179;28;20496;-30
2022/11/17 18:04:36;;;;;;;7.87;3.70;;;;;;;17.70;64.00;94820.31;10436459;28;20029;-29
2022/11/17 18:09:37;;;;;;;15.85;7.03;;;;;;;17.68;64.59;94813.63;10438014;28;20040;-30
2022/11/17 18:14:37;;;;;;;17.70;6.67;;;;;;;17.75;64.04;94830.31;10435871;28;20601;-30
2022/11/17 18:19:38;;;;;;;16.33;6.77;;;;;;;17.74;64.54;94810.94;10430004;28;20385;-33
2022/11/17 18:24:38;;;;;;;16.05;6.75;;;;;;;17.72;65.15;94810.13;10433917;28;20290;-33
2022/11/17 18:29:38;;;;;;;18.50;8.17;;;;;;;17.73;64.80;94822.75;10434505;28;20025;-30
2022/11/17 18:34:40;;;;;;;19.33;8.87;;;;;;;17.72;65.13;94817.72;10427183;28;20044;-30
2022/11/17 18:39:41;;;;;;;19.48;8.25;;;;;;;17.75;65.02;94825.25;10436258;28;20386;-30
2022/11/17 18:44:41;;;;;;;19.37;10.03;;;;;;;17.74;65.27;94833.72;10433905;28;20047;-30
2022/11/17 18:49:41;;;;;;;21.33;10.03;;;;;;;17.79;65.06;94836.94;10434028;28;20040;-32
2022/11/17 18:54:42;;;;;;;21.17;9.70;;;;;;;17.74;65.21;94841.31;10437056;28;20295;-30
2022/11/17 18:59:42;;;;;;;20.63;10.03;;;;;;;17.76;64.97;94826.91;10437236;28;20041;-30
2022/11/17 19:04:42;;;;;;;22.77;10.70;;;;;;;17.78;64.83;94832.75;10437462;28;20051;-30
2022/11/17 19:09:43;;;;;;;22.23;9.13;;;;;;;17.76;65.08;94827.72;10434811;28;20021;-30
2022/11/17 19:14:43;;;;;;;24.43;10.30;;;;;;;17.84;64.62;94830.06;10436468;28;20302;-30
2022/11/17 19:19:44;;;;;;;27.60;10.77;;;;;;;17.85;64.86;94826.66;10432094;28;20037;-30
2022/11/17 19:24:44;;;;;;;23.57;10.30;;;;;;;17.85;65.29;94826.66;10443065;28;20035;-30
2022/11/17 19:29:44;;;;;;;26.97;10.97;;;;;;;17.85;65.57;94829.19;10438522;28;20021;-31
2022/11/17 19:34:45;;;;;;;21.77;11.07;;;;;;;17.82;66.01;94827.56;10433555;28;20102;-28
2022/11/17 19:39:45;;;;;;;21.33;10.30;;;;;;;17.82;66.08;94836.88;10437155;28;20033;-29
2022/11/17 19:44:46;;;;;;;24.27;9.80;;;;;;;17.82;65.93;94830.09;10425557;28;20087;-28
2022/11/17 19:49:46;;;;;;;23.50;10.77;;;;;;;17.82;65.67;94825.03;10435381;28;20108;-29
2022/11/17 19:54:46;;;;;;;27.03;11.87;;;;;;;17.81;66.34;94832.66;10438273;28;20048;-29
2022/11/17 19:59:47;;;;;;;24.63;11.70;;;;;;;17.81;66.24;94832.66;10439186;28;20029;-29
2022/11/17 20:04:47;;;;;;;23.23;11.05;;;;;;;17.80;65.92;94839.44;10433824;28;20041;-29
2022/11/17 20:09:48;;;;;;;24.70;12.67;;;;;;;17.82;66.50;94842.75;10441511;28;20029;-29
2022/11/17 20:14:48;;;;;;;25.10;11.17;;;;;;;17.83;66.84;94858.78;10440906;28;20032;-29
2022/11/17 20:19:49;;;;;;;23.57;11.97;;;;;;;17.82;66.67;94859.66;10431623;28;20034;-29
2022/11/17 20:24:49;;;;;;;28.65;10.57;;;;;;;17.86;66.64;94853.59;10441145;28;20029;-29
2022/11/17 20:29:50;;;;;;;19.80;9.90;;;;;;;17.89;66.30;94858.59;10438510;28;20033;-28
2022/11/17 20:34:50;;;;;;;23.88;11.32;;;;;;;17.89;66.52;94849.28;10434915;28;20063;-30
2022/11/17 20:39:51;;;;;;;22.03;10.10;;;;;;;17.89;66.03;94846.78;10439527;28;20028;-28
2022/11/17 20:44:51;;;;;;;22.13;10.73;;;;;;;17.82;66.76;94835.16;10426627;28;20407;-29
2022/11/17 20:49:53;;;;;;;21.67;10.70;;;;;;;17.90;66.40;94862.78;10432969;28;20272;-28
2022/11/17 20:54:53;;;;;;;22.65;10.77;;;;;;;17.91;65.99;94861.91;10439200;28;20120;-29
2022/11/17 20:59:53;;;;;;;22.33;10.43;;;;;;;17.93;65.60;94860.16;10432555;28;20042;-28
2022/11/17 21:04:54;;;;;;;16.93;9.37;;;;;;;17.92;65.87;94851.72;10437411;28;20034;-28
2022/11/17 21:09:54;;;;;;;21.57;10.47;;;;;;;17.92;66.08;94873.69;10432910;28;20040;-29
2022/11/17 21:14:55;;;;;;;20.37;10.03;;;;;;;17.91;65.83;94877.09;10438115;28;20033;-29
2022/11/17 21:19:55;;;;;;;20.70;10.30;;;;;;;17.92;66.06;94891.44;10434925;28;20835;-29
2022/11/17 21:24:55;;;;;;;13.40;7.97;;;;;;;17.91;66.23;94892.31;10442598;28;20432;-28
2022/11/17 21:29:56;;;;;;;17.63;9.27;;;;;;;17.90;66.05;94898.25;10438997;28;20437;-28
2022/11/17 21:34:56;;;;;;;17.57;8.77;;;;;;;17.90;65.74;94886.41;10435826;28;20487;-28
2022/11/17 21:39:57;;;;;;;17.17;8.88;;;;;;;17.86;66.02;94871.31;10433496;28;20422;-30
2022/11/17 21:44:57;;;;;;;18.00;9.03;;;;;;;17.91;66.22;94874.59;10437867;28;20119;-29
2022/11/17 21:49:57;;;;;;;19.00;8.70;;;;;;;17.90;65.84;94880.50;10426578;28;20112;-30
2022/11/17 21:54:58;;;;;;;22.43;9.23;;;;;;;17.91;66.35;94872.84;10435801;28;20084;-29
2022/11/17 21:59:58;;;;;;;17.60;8.47;;;;;;;17.88;66.66;94865.38;10434919;28;20042;-29
2022/11/17 22:04:58;;;;;;;19.13;9.73;;;;;;;17.90;66.51;94858.53;10432016;28;20291;-28
2022/11/17 22:09:59;;;;;;;18.00;8.83;;;;;;;17.90;66.39;94860.25;10443622;28;20410;-29
2022/11/17 22:14:59;;;;;;;16.30;8.03;;;;;;;17.82;66.25;94850.34;10439654;28;20029;-29
2022/11/17 22:19:59;;;;;;;16.90;8.83;;;;;;;17.86;66.74;94851.94;10437709;28;20036;-29
2022/11/17 22:25:00;;;;;;;15.33;7.33;;;;;;;17.86;66.02;94851.09;10444822;28;20279;-29
2022/11/17 22:30:00;;;;;;;18.35;9.15;;;;;;;17.85;66.38;94842.69;10439741;28;20030;-29
2022/11/17 22:35:01;;;;;;;14.93;8.10;;;;;;;17.85;66.25;94841.81;10439541;28;20134;-28
2022/11/17 22:40:01;;;;;;;15.60;8.00;;;;;;;17.82;66.29;94837.69;10446068;28;20100;-29
2022/11/17 22:45:01;;;;;;;15.20;8.10;;;;;;;17.83;66.28;94846.94;10437395;28;20033;-28
2022/11/17 22:50:02;;;;;;;15.18;7.97;;;;;;;17.84;66.61;94855.38;10441346;28;20041;-29
2022/11/17 22:55:03;;;;;;;14.75;6.85;;;;;;;17.83;66.22;94856.25;10446668;28;20033;-29
2022/11/17 23:00:04;;;;;;;12.90;7.65;;;;;;;17.82;66.59;94841.94;10440729;28;20065;-29
2022/11/17 23:05:05;;;;;;;18.23;9.10;;;;;;;17.84;66.50;94852.84;10443401;28;20025;-29
2022/11/17 23:10:06;;;;;;;15.32;7.68;;;;;;;17.85;66.45;94844.34;10445380;28;20025;-28
2022/11/17 23:15:07;;;;;;;13.93;7.30;;;;;;;17.83;66.95;94838.53;10441383;28;20116;-29
2022/11/17 23:20:08;;;;;;;13.77;6.75;;;;;;;17.85;66.02;94836.78;10440766;28;20036;-28
2022/11/17 23:25:09;;;;;;;13.55;7.68;;;;;;;17.84;66.58;94833.41;10443647;28;20423;-29
2022/11/17 23:30:10;;;;;;;13.25;6.95;;;;;;;17.86;66.01;94844.31;10431585;28;20021;-28
2022/11/17 23:35:10;;;;;;;11.98;6.97;;;;;;;17.84;66.64;94841.00;10434838;28;20025;-29
2022/11/17 23:40:11;;;;;;;14.97;6.80;;;;;;;17.85;66.29;94836.78;10441275;28;20486;-29
2022/11/17 23:45:11;;;;;;;14.15;7.28;;;;;;;17.81;66.48;94827.59;10432508;28;20033;-29
2022/11/17 23:50:12;;;;;;;11.35;6.25;;;;;;;17.81;66.65;94832.66;10438195;28;20125;-29
2022/11/17 23:55:12;;;;;;;10.43;6.63;;;;;;;17.80;66.56;94831.84;10442440;28;20464;-28
